CheckWX is a tool to help pilots better visualize weather data.  It is not intended as a substitute for an official pre-flight weather briefing.

20:21:27 UTC

NVSC TAF
Sola Airport
Sola, Vanuatu
TAF NVSC 251600Z 2518/2618 12005KT 9999 SCT020 PROB30 INTER 2518/2524 9000 -SHRA BKN018

Jun-25@
18:00 UTC

Jun-25 @ 18:00 UTC

Jun-26@
18:00 UTC

Jun-26 @ 18:00 UTC

TAF NVSC 251600Z 2518/2618 12005KT 9999 SCT020
Wind
  • 120° at 5 KTS
Cloud Levels
  • Scattered at 2,000' AGL

Jun-25@
18:00 UTC

Jun-25 @ 18:00 UTC

Jun-26@
00:00 UTC

Jun-26 @ 00:00 UTC

PROB30 INTER 2518/2524 9000 -SHRA BKN018

Temporary - 30% Likelihood

Temporary - 30% Likelihood during this time.

Conditions
Light Rain
Cloud Levels
  • Broken at 1,800' AGL